sensor_id;sensor_type;location;lat;lon;timestamp;temperature;humidity
16200;DHT22;8207;52.494;4.654;2023-03-29T00:02:21;6.60;99.90
16200;DHT22;8207;52.494;4.654;2023-03-29T00:04:55;6.70;99.90
16200;DHT22;8207;52.494;4.654;2023-03-29T00:07:22;6.70;99.90
16200;DHT22;8207;52.494;4.654;2023-03-29T00:09:50;6.70;99.90
16200;DHT22;8207;52.494;4.654;2023-03-29T00:12:17;6.70;99.90
16200;DHT22;8207;52.494;4.654;2023-03-29T00:14:46;6.70;99.90
16200;DHT22;8207;52.494;4.654;2023-03-29T00:17:13;6.70;99.90
16200;DHT22;8207;52.494;4.654;2023-03-29T00:19:42;6.70;99.90
16200;DHT22;8207;52.494;4.654;2023-03-29T00:22:09;6.80;99.90
16200;DHT22;8207;52.494;4.654;2023-03-29T00:24:36;6.80;99.90
16200;DHT22;8207;52.494;4.654;2023-03-29T00:27:03;6.80;99.90
16200;DHT22;8207;52.494;4.654;2023-03-29T00:29:30;6.80;99.90
16200;DHT22;8207;52.494;4.654;2023-03-29T00:31:59;6.80;99.90
16200;DHT22;8207;52.494;4.654;2023-03-29T00:34:26;6.80;99.90
16200;DHT22;8207;52.494;4.654;2023-03-29T00:36:55;6.80;99.90
16200;DHT22;8207;52.494;4.654;2023-03-29T00:39:23;6.80;99.90
16200;DHT22;8207;52.494;4.654;2023-03-29T00:41:50;6.80;99.90
16200;DHT22;8207;52.494;4.654;2023-03-29T00:44:53;6.70;99.90
16200;DHT22;8207;52.494;4.654;2023-03-29T00:47:26;6.70;99.90
16200;DHT22;8207;52.494;4.654;2023-03-29T00:49:56;6.70;99.90
16200;DHT22;8207;52.494;4.654;2023-03-29T00:52:24;6.80;99.90
16200;DHT22;8207;52.494;4.654;2023-03-29T00:54:56;6.80;99.90
16200;DHT22;8207;52.494;4.654;2023-03-29T00:57:24;6.80;99.90
16200;DHT22;8207;52.494;4.654;2023-03-29T00:59:53;6.90;99.90
16200;DHT22;8207;52.494;4.654;2023-03-29T01:02:25;6.90;99.90
16200;DHT22;8207;52.494;4.654;2023-03-29T01:04:57;6.80;99.90
16200;DHT22;8207;52.494;4.654;2023-03-29T01:07:27;6.90;99.90
16200;DHT22;8207;52.494;4.654;2023-03-29T01:10:01;6.80;99.90
16200;DHT22;8207;52.494;4.654;2023-03-29T01:12:32;6.90;99.90
16200;DHT22;8207;52.494;4.654;2023-03-29T01:15:03;6.90;99.90
16200;DHT22;8207;52.494;4.654;2023-03-29T01:17:32;6.90;99.90
16200;DHT22;8207;52.494;4.654;2023-03-29T01:20:03;6.90;99.90
16200;DHT22;8207;52.494;4.654;2023-03-29T01:22:46;6.90;99.90
16200;DHT22;8207;52.494;4.654;2023-03-29T01:25:21;6.90;99.90
16200;DHT22;8207;52.494;4.654;2023-03-29T01:27:54;6.90;99.90
16200;DHT22;8207;52.494;4.654;2023-03-29T01:30:25;6.90;99.90
16200;DHT22;8207;52.494;4.654;2023-03-29T01:32:56;6.90;99.90
16200;DHT22;8207;52.494;4.654;2023-03-29T01:35:30;6.90;99.90
16200;DHT22;8207;52.494;4.654;2023-03-29T01:38:02;6.90;99.90
16200;DHT22;8207;52.494;4.654;2023-03-29T01:40:33;6.90;99.90
16200;DHT22;8207;52.494;4.654;2023-03-29T01:43:10;6.90;99.90
16200;DHT22;8207;52.494;4.654;2023-03-29T01:45:42;6.90;99.90
16200;DHT22;8207;52.494;4.654;2023-03-29T01:48:17;6.90;99.90
16200;DHT22;8207;52.494;4.654;2023-03-29T01:50:47;6.90;99.90
16200;DHT22;8207;52.494;4.654;2023-03-29T01:53:18;6.90;99.90
16200;DHT22;8207;52.494;4.654;2023-03-29T01:55:51;6.90;99.90
16200;DHT22;8207;52.494;4.654;2023-03-29T01:58:21;6.90;99.90
16200;DHT22;8207;52.494;4.654;2023-03-29T02:00:51;6.90;99.90
16200;DHT22;8207;52.494;4.654;2023-03-29T02:03:23;6.90;99.90
16200;DHT22;8207;52.494;4.654;2023-03-29T02:05:51;6.90;99.90
16200;DHT22;8207;52.494;4.654;2023-03-29T02:08:20;6.90;99.90
16200;DHT22;8207;52.494;4.654;2023-03-29T02:10:48;7.00;99.90
16200;DHT22;8207;52.494;4.654;2023-03-29T02:13:16;7.00;99.90
16200;DHT22;8207;52.494;4.654;2023-03-29T02:15:45;7.00;99.90
16200;DHT22;8207;52.494;4.654;2023-03-29T02:18:13;7.10;99.90
16200;DHT22;8207;52.494;4.654;2023-03-29T02:20:43;7.10;99.90
16200;DHT22;8207;52.494;4.654;2023-03-29T02:23:14;7.10;99.90
16200;DHT22;8207;52.494;4.654;2023-03-29T02:25:43;7.10;99.90
16200;DHT22;8207;52.494;4.654;2023-03-29T02:28:12;7.20;99.90
16200;DHT22;8207;52.494;4.654;2023-03-29T02:30:46;7.10;99.90
16200;DHT22;8207;52.494;4.654;2023-03-29T02:33:20;7.20;99.90
16200;DHT22;8207;52.494;4.654;2023-03-29T02:35:52;7.20;99.90
16200;DHT22;8207;52.494;4.654;2023-03-29T02:38:22;7.20;99.90
16200;DHT22;8207;52.494;4.654;2023-03-29T02:40:53;7.30;99.90
16200;DHT22;8207;52.494;4.654;2023-03-29T02:43:22;7.30;99.90
16200;DHT22;8207;52.494;4.654;2023-03-29T02:45:51;7.30;99.90
16200;DHT22;8207;52.494;4.654;2023-03-29T02:48:21;7.30;99.90
16200;DHT22;8207;52.494;4.654;2023-03-29T02:50:52;7.40;99.90
16200;DHT22;8207;52.494;4.654;2023-03-29T02:53:23;7.40;99.90
16200;DHT22;8207;52.494;4.654;2023-03-29T02:55:51;7.40;99.90
16200;DHT22;8207;52.494;4.654;2023-03-29T02:58:18;7.40;99.90
16200;DHT22;8207;52.494;4.654;2023-03-29T03:00:52;7.30;99.90
16200;DHT22;8207;52.494;4.654;2023-03-29T03:03:19;7.30;99.90
16200;DHT22;8207;52.494;4.654;2023-03-29T03:05:46;7.30;99.90
16200;DHT22;8207;52.494;4.654;2023-03-29T03:08:13;7.30;99.90
16200;DHT22;8207;52.494;4.654;2023-03-29T03:10:40;7.30;99.90
16200;DHT22;8207;52.494;4.654;2023-03-29T03:13:07;7.40;99.90
16200;DHT22;8207;52.494;4.654;2023-03-29T03:15:34;7.40;99.90
16200;DHT22;8207;52.494;4.654;2023-03-29T03:18:03;7.50;99.90
16200;DHT22;8207;52.494;4.654;2023-03-29T03:20:30;7.40;99.90
16200;DHT22;8207;52.494;4.654;2023-03-29T03:22:57;7.40;99.90
16200;DHT22;8207;52.494;4.654;2023-03-29T03:25:25;7.40;99.90
16200;DHT22;8207;52.494;4.654;2023-03-29T03:27:53;7.50;99.90
16200;DHT22;8207;52.494;4.654;2023-03-29T03:30:20;7.50;99.90
16200;DHT22;8207;52.494;4.654;2023-03-29T03:32:47;7.50;99.90
16200;DHT22;8207;52.494;4.654;2023-03-29T03:35:16;7.50;99.90
16200;DHT22;8207;52.494;4.654;2023-03-29T03:37:43;7.40;99.90
16200;DHT22;8207;52.494;4.654;2023-03-29T03:40:11;7.50;99.90
16200;DHT22;8207;52.494;4.654;2023-03-29T03:42:38;7.50;99.90
16200;DHT22;8207;52.494;4.654;2023-03-29T03:45:06;7.50;99.90
16200;DHT22;8207;52.494;4.654;2023-03-29T03:47:34;7.50;99.90
16200;DHT22;8207;52.494;4.654;2023-03-29T03:50:02;7.60;99.90
16200;DHT22;8207;52.494;4.654;2023-03-29T03:52:30;7.70;99.90
16200;DHT22;8207;52.494;4.654;2023-03-29T03:54:57;7.70;99.90
16200;DHT22;8207;52.494;4.654;2023-03-29T03:57:24;7.70;99.90
16200;DHT22;8207;52.494;4.654;2023-03-29T03:59:51;7.70;99.90
16200;DHT22;8207;52.494;4.654;2023-03-29T04:02:18;7.70;99.90
16200;DHT22;8207;52.494;4.654;2023-03-29T04:04:45;7.70;99.90
16200;DHT22;8207;52.494;4.654;2023-03-29T04:07:12;7.80;99.90
16200;DHT22;8207;52.494;4.654;2023-03-29T04:09:40;7.80;99.90
16200;DHT22;8207;52.494;4.654;2023-03-29T04:12:08;7.80;99.90
16200;DHT22;8207;52.494;4.654;2023-03-29T04:14:36;7.80;99.90
16200;DHT22;8207;52.494;4.654;2023-03-29T04:17:02;7.80;99.90
16200;DHT22;8207;52.494;4.654;2023-03-29T04:19:30;7.80;99.90
16200;DHT22;8207;52.494;4.654;2023-03-29T04:21:57;7.80;99.90
16200;DHT22;8207;52.494;4.654;2023-03-29T04:24:24;7.90;99.90
16200;DHT22;8207;52.494;4.654;2023-03-29T04:26:52;7.90;99.90
16200;DHT22;8207;52.494;4.654;2023-03-29T04:29:19;7.90;99.90
16200;DHT22;8207;52.494;4.654;2023-03-29T04:31:45;7.90;99.90
16200;DHT22;8207;52.494;4.654;2023-03-29T04:34:13;7.90;99.90
16200;DHT22;8207;52.494;4.654;2023-03-29T04:36:39;7.90;99.90
16200;DHT22;8207;52.494;4.654;2023-03-29T04:39:06;7.90;99.90
16200;DHT22;8207;52.494;4.654;2023-03-29T04:41:33;8.00;99.90
16200;DHT22;8207;52.494;4.654;2023-03-29T04:44:02;7.90;99.90
16200;DHT22;8207;52.494;4.654;2023-03-29T04:46:29;7.90;99.90
16200;DHT22;8207;52.494;4.654;2023-03-29T04:48:56;8.00;99.90
16200;DHT22;8207;52.494;4.654;2023-03-29T04:51:23;8.00;99.90
16200;DHT22;8207;52.494;4.654;2023-03-29T04:53:50;8.00;99.90
16200;DHT22;8207;52.494;4.654;2023-03-29T04:56:17;8.00;99.90
16200;DHT22;8207;52.494;4.654;2023-03-29T04:58:44;8.10;99.90
16200;DHT22;8207;52.494;4.654;2023-03-29T05:01:12;8.10;99.90
16200;DHT22;8207;52.494;4.654;2023-03-29T05:03:39;8.10;99.90
16200;DHT22;8207;52.494;4.654;2023-03-29T05:06:08;8.10;99.90
16200;DHT22;8207;52.494;4.654;2023-03-29T05:08:38;8.20;99.90
16200;DHT22;8207;52.494;4.654;2023-03-29T05:11:06;8.10;99.90
16200;DHT22;8207;52.494;4.654;2023-03-29T05:13:33;8.20;99.90
16200;DHT22;8207;52.494;4.654;2023-03-29T05:16:00;8.20;99.90
16200;DHT22;8207;52.494;4.654;2023-03-29T05:18:30;8.20;99.90
16200;DHT22;8207;52.494;4.654;2023-03-29T05:20:58;8.30;99.90
16200;DHT22;8207;52.494;4.654;2023-03-29T05:23:25;8.30;99.90
16200;DHT22;8207;52.494;4.654;2023-03-29T05:25:52;8.30;99.90
16200;DHT22;8207;52.494;4.654;2023-03-29T05:28:19;8.30;99.90
16200;DHT22;8207;52.494;4.654;2023-03-29T05:30:46;8.30;99.90
16200;DHT22;8207;52.494;4.654;2023-03-29T05:33:14;8.40;99.90
16200;DHT22;8207;52.494;4.654;2023-03-29T05:35:42;8.40;99.90
16200;DHT22;8207;52.494;4.654;2023-03-29T05:38:09;8.40;99.90
16200;DHT22;8207;52.494;4.654;2023-03-29T05:40:36;8.40;99.90
16200;DHT22;8207;52.494;4.654;2023-03-29T05:43:02;8.50;99.90
16200;DHT22;8207;52.494;4.654;2023-03-29T05:45:29;8.40;99.90
16200;DHT22;8207;52.494;4.654;2023-03-29T05:47:58;8.50;99.90
16200;DHT22;8207;52.494;4.654;2023-03-29T05:50:24;8.50;99.90
16200;DHT22;8207;52.494;4.654;2023-03-29T05:52:53;8.50;99.90
16200;DHT22;8207;52.494;4.654;2023-03-29T05:55:20;8.60;99.90
16200;DHT22;8207;52.494;4.654;2023-03-29T05:57:46;8.50;99.90
16200;DHT22;8207;52.494;4.654;2023-03-29T06:00:15;8.60;99.90
16200;DHT22;8207;52.494;4.654;2023-03-29T06:02:48;8.70;99.90
16200;DHT22;8207;52.494;4.654;2023-03-29T06:05:15;8.70;99.90
16200;DHT22;8207;52.494;4.654;2023-03-29T06:07:42;8.70;99.90
16200;DHT22;8207;52.494;4.654;2023-03-29T06:10:11;8.80;99.90
16200;DHT22;8207;52.494;4.654;2023-03-29T06:12:38;8.80;99.90
16200;DHT22;8207;52.494;4.654;2023-03-29T06:15:06;8.80;99.90
16200;DHT22;8207;52.494;4.654;2023-03-29T06:17:33;8.80;99.90
16200;DHT22;8207;52.494;4.654;2023-03-29T06:20:00;8.90;99.90
16200;DHT22;8207;52.494;4.654;2023-03-29T06:22:29;8.90;99.90
16200;DHT22;8207;52.494;4.654;2023-03-29T06:24:56;8.90;99.90
16200;DHT22;8207;52.494;4.654;2023-03-29T06:27:24;9.00;99.90
16200;DHT22;8207;52.494;4.654;2023-03-29T06:29:51;8.90;99.90
16200;DHT22;8207;52.494;4.654;2023-03-29T06:32:18;9.00;99.90
16200;DHT22;8207;52.494;4.654;2023-03-29T06:34:45;9.00;99.90
16200;DHT22;8207;52.494;4.654;2023-03-29T06:37:12;9.00;99.90
16200;DHT22;8207;52.494;4.654;2023-03-29T06:39:39;9.10;99.90
16200;DHT22;8207;52.494;4.654;2023-03-29T06:42:06;9.10;99.90
16200;DHT22;8207;52.494;4.654;2023-03-29T06:44:34;9.10;99.90
16200;DHT22;8207;52.494;4.654;2023-03-29T06:47:02;9.10;99.90
16200;DHT22;8207;52.494;4.654;2023-03-29T06:49:29;9.10;99.90
16200;DHT22;8207;52.494;4.654;2023-03-29T06:51:56;9.20;99.90
16200;DHT22;8207;52.494;4.654;2023-03-29T06:54:24;9.20;99.90
16200;DHT22;8207;52.494;4.654;2023-03-29T06:56:51;9.30;99.90
16200;DHT22;8207;52.494;4.654;2023-03-29T06:59:18;9.30;99.90
16200;DHT22;8207;52.494;4.654;2023-03-29T07:01:46;9.30;99.90
16200;DHT22;8207;52.494;4.654;2023-03-29T07:04:14;9.40;99.90
16200;DHT22;8207;52.494;4.654;2023-03-29T07:06:42;9.40;99.90
16200;DHT22;8207;52.494;4.654;2023-03-29T07:09:13;9.40;99.90
16200;DHT22;8207;52.494;4.654;2023-03-29T07:11:41;9.50;99.90
16200;DHT22;8207;52.494;4.654;2023-03-29T07:14:09;9.60;99.90
16200;DHT22;8207;52.494;4.654;2023-03-29T07:16:36;9.60;99.90
16200;DHT22;8207;52.494;4.654;2023-03-29T07:19:04;9.60;99.90
16200;DHT22;8207;52.494;4.654;2023-03-29T07:21:33;9.60;99.90
16200;DHT22;8207;52.494;4.654;2023-03-29T07:24:00;9.70;99.90
16200;DHT22;8207;52.494;4.654;2023-03-29T07:26:29;9.70;99.90
16200;DHT22;8207;52.494;4.654;2023-03-29T07:28:56;9.80;99.90
16200;DHT22;8207;52.494;4.654;2023-03-29T07:31:25;9.80;99.90
16200;DHT22;8207;52.494;4.654;2023-03-29T07:33:53;9.80;99.90
16200;DHT22;8207;52.494;4.654;2023-03-29T07:36:22;9.80;99.90
16200;DHT22;8207;52.494;4.654;2023-03-29T07:38:48;9.90;99.90
16200;DHT22;8207;52.494;4.654;2023-03-29T07:41:15;9.80;99.90
16200;DHT22;8207;52.494;4.654;2023-03-29T07:43:42;9.90;99.90
16200;DHT22;8207;52.494;4.654;2023-03-29T07:46:09;9.90;99.90
16200;DHT22;8207;52.494;4.654;2023-03-29T07:48:36;9.90;99.90
16200;DHT22;8207;52.494;4.654;2023-03-29T07:51:04;9.90;99.90
16200;DHT22;8207;52.494;4.654;2023-03-29T07:53:33;9.90;99.90
16200;DHT22;8207;52.494;4.654;2023-03-29T07:56:00;9.90;99.90
16200;DHT22;8207;52.494;4.654;2023-03-29T07:58:27;10.00;99.90
16200;DHT22;8207;52.494;4.654;2023-03-29T08:00:55;10.00;99.90
16200;DHT22;8207;52.494;4.654;2023-03-29T08:03:22;10.00;99.90
16200;DHT22;8207;52.494;4.654;2023-03-29T08:05:48;10.00;99.90
16200;DHT22;8207;52.494;4.654;2023-03-29T08:08:16;10.10;99.90
16200;DHT22;8207;52.494;4.654;2023-03-29T08:10:45;10.00;99.90
16200;DHT22;8207;52.494;4.654;2023-03-29T08:13:12;10.10;99.90
16200;DHT22;8207;52.494;4.654;2023-03-29T08:15:38;10.10;99.90
16200;DHT22;8207;52.494;4.654;2023-03-29T08:18:10;10.10;99.90
16200;DHT22;8207;52.494;4.654;2023-03-29T08:20:37;10.20;99.90
16200;DHT22;8207;52.494;4.654;2023-03-29T08:23:04;10.10;99.90
16200;DHT22;8207;52.494;4.654;2023-03-29T08:25:31;10.10;99.90
16200;DHT22;8207;52.494;4.654;2023-03-29T08:28:01;10.10;99.90
16200;DHT22;8207;52.494;4.654;2023-03-29T08:30:28;10.10;99.90
16200;DHT22;8207;52.494;4.654;2023-03-29T08:32:55;10.10;99.90
16200;DHT22;8207;52.494;4.654;2023-03-29T08:35:21;10.20;99.90
16200;DHT22;8207;52.494;4.654;2023-03-29T08:37:48;10.20;99.90
16200;DHT22;8207;52.494;4.654;2023-03-29T08:40:19;10.20;99.90
16200;DHT22;8207;52.494;4.654;2023-03-29T08:45:46;10.30;99.90
16200;DHT22;8207;52.494;4.654;2023-03-29T08:48:21;10.30;99.90
16200;DHT22;8207;52.494;4.654;2023-03-29T08:50:51;10.30;99.90
16200;DHT22;8207;52.494;4.654;2023-03-29T08:53:22;10.40;99.90
16200;DHT22;8207;52.494;4.654;2023-03-29T08:55:52;10.40;99.90
16200;DHT22;8207;52.494;4.654;2023-03-29T08:58:23;10.40;99.90
16200;DHT22;8207;52.494;4.654;2023-03-29T09:00:54;10.40;99.90
16200;DHT22;8207;52.494;4.654;2023-03-29T09:03:24;10.50;99.90
16200;DHT22;8207;52.494;4.654;2023-03-29T09:05:54;10.50;99.90
16200;DHT22;8207;52.494;4.654;2023-03-29T09:08:23;10.60;99.90
16200;DHT22;8207;52.494;4.654;2023-03-29T09:11:02;10.50;99.90
16200;DHT22;8207;52.494;4.654;2023-03-29T09:13:38;10.60;99.90
16200;DHT22;8207;52.494;4.654;2023-03-29T09:16:21;10.60;99.90
16200;DHT22;8207;52.494;4.654;2023-03-29T09:18:57;10.70;99.90
16200;DHT22;8207;52.494;4.654;2023-03-29T09:21:33;10.70;99.90
16200;DHT22;8207;52.494;4.654;2023-03-29T09:24:26;10.70;99.90
16200;DHT22;8207;52.494;4.654;2023-03-29T09:26:59;10.80;99.90
16200;DHT22;8207;52.494;4.654;2023-03-29T09:29:39;10.80;99.90
16200;DHT22;8207;52.494;4.654;2023-03-29T09:32:18;10.80;99.90
16200;DHT22;8207;52.494;4.654;2023-03-29T09:34:52;10.80;99.90
16200;DHT22;8207;52.494;4.654;2023-03-29T09:37:24;10.90;99.90
16200;DHT22;8207;52.494;4.654;2023-03-29T09:39:54;10.90;99.90
16200;DHT22;8207;52.494;4.654;2023-03-29T09:42:22;11.00;99.90
16200;DHT22;8207;52.494;4.654;2023-03-29T09:44:54;11.10;99.90
16200;DHT22;8207;52.494;4.654;2023-03-29T09:47:27;11.10;99.90
16200;DHT22;8207;52.494;4.654;2023-03-29T09:49:56;11.10;99.90
16200;DHT22;8207;52.494;4.654;2023-03-29T09:52:25;11.20;99.90
16200;DHT22;8207;52.494;4.654;2023-03-29T09:54:52;11.20;99.90
16200;DHT22;8207;52.494;4.654;2023-03-29T09:57:19;11.30;99.90
16200;DHT22;8207;52.494;4.654;2023-03-29T09:59:48;11.40;99.90
16200;DHT22;8207;52.494;4.654;2023-03-29T10:02:18;11.50;99.90
16200;DHT22;8207;52.494;4.654;2023-03-29T10:04:51;11.50;99.90
16200;DHT22;8207;52.494;4.654;2023-03-29T10:07:20;11.60;99.90
16200;DHT22;8207;52.494;4.654;2023-03-29T10:09:48;11.70;99.90
16200;DHT22;8207;52.494;4.654;2023-03-29T10:12:18;11.70;99.90
16200;DHT22;8207;52.494;4.654;2023-03-29T10:14:48;11.70;99.90
16200;DHT22;8207;52.494;4.654;2023-03-29T10:17:19;11.70;99.90
16200;DHT22;8207;52.494;4.654;2023-03-29T10:19:50;11.70;99.90
16200;DHT22;8207;52.494;4.654;2023-03-29T10:22:20;11.70;99.90
16200;DHT22;8207;52.494;4.654;2023-03-29T10:24:49;11.80;99.90
16200;DHT22;8207;52.494;4.654;2023-03-29T10:27:19;11.80;99.90
16200;DHT22;8207;52.494;4.654;2023-03-29T10:29:48;11.80;99.90
16200;DHT22;8207;52.494;4.654;2023-03-29T10:32:30;11.80;99.90
16200;DHT22;8207;52.494;4.654;2023-03-29T10:35:04;11.70;99.90
16200;DHT22;8207;52.494;4.654;2023-03-29T10:37:34;11.70;99.90
16200;DHT22;8207;52.494;4.654;2023-03-29T10:40:01;11.70;99.90
16200;DHT22;8207;52.494;4.654;2023-03-29T10:42:28;11.70;99.90
16200;DHT22;8207;52.494;4.654;2023-03-29T10:44:56;11.70;99.90
16200;DHT22;8207;52.494;4.654;2023-03-29T10:47:24;11.70;99.90
16200;DHT22;8207;52.494;4.654;2023-03-29T10:49:53;11.70;99.90
16200;DHT22;8207;52.494;4.654;2023-03-29T10:52:22;11.80;99.90
16200;DHT22;8207;52.494;4.654;2023-03-29T10:54:50;11.90;99.90
16200;DHT22;8207;52.494;4.654;2023-03-29T10:57:23;11.90;99.90
16200;DHT22;8207;52.494;4.654;2023-03-29T10:59:58;12.00;99.90
16200;DHT22;8207;52.494;4.654;2023-03-29T11:05:33;12.30;99.90
16200;DHT22;8207;52.494;4.654;2023-03-29T11:08:28;12.40;99.90
16200;DHT22;8207;52.494;4.654;2023-03-29T11:11:10;12.50;99.90
16200;DHT22;8207;52.494;4.654;2023-03-29T11:13:44;12.60;99.90
16200;DHT22;8207;52.494;4.654;2023-03-29T11:16:22;12.60;99.90
16200;DHT22;8207;52.494;4.654;2023-03-29T11:21:54;12.80;99.90
16200;DHT22;8207;52.494;4.654;2023-03-29T11:24:36;12.80;99.90
16200;DHT22;8207;52.494;4.654;2023-03-29T11:27:12;12.80;99.90
16200;DHT22;8207;52.494;4.654;2023-03-29T11:29:52;12.80;99.90
16200;DHT22;8207;52.494;4.654;2023-03-29T11:32:29;12.80;99.90
16200;DHT22;8207;52.494;4.654;2023-03-29T11:35:07;12.90;99.90
16200;DHT22;8207;52.494;4.654;2023-03-29T11:37:43;13.00;99.90
16200;DHT22;8207;52.494;4.654;2023-03-29T11:40:30;13.20;99.90
16200;DHT22;8207;52.494;4.654;2023-03-29T11:43:04;13.40;99.90
16200;DHT22;8207;52.494;4.654;2023-03-29T11:45:37;13.60;99.90
16200;DHT22;8207;52.494;4.654;2023-03-29T11:48:11;13.70;99.90
16200;DHT22;8207;52.494;4.654;2023-03-29T11:50:45;13.80;99.90
16200;DHT22;8207;52.494;4.654;2023-03-29T11:53:18;13.80;99.90
16200;DHT22;8207;52.494;4.654;2023-03-29T11:55:50;13.70;99.90
16200;DHT22;8207;52.494;4.654;2023-03-29T11:58:21;13.70;99.90
16200;DHT22;8207;52.494;4.654;2023-03-29T12:00:53;13.60;99.90
16200;DHT22;8207;52.494;4.654;2023-03-29T12:03:31;13.60;99.90
16200;DHT22;8207;52.494;4.654;2023-03-29T12:06:04;13.60;99.90
16200;DHT22;8207;52.494;4.654;2023-03-29T12:08:37;13.60;99.90
16200;DHT22;8207;52.494;4.654;2023-03-29T12:11:10;13.70;99.90
16200;DHT22;8207;52.494;4.654;2023-03-29T12:13:43;13.70;99.90
16200;DHT22;8207;52.494;4.654;2023-03-29T12:16:15;13.70;99.90
16200;DHT22;8207;52.494;4.654;2023-03-29T12:18:45;13.70;99.90
16200;DHT22;8207;52.494;4.654;2023-03-29T12:21:17;13.70;99.90
16200;DHT22;8207;52.494;4.654;2023-03-29T12:23:45;13.70;99.90
16200;DHT22;8207;52.494;4.654;2023-03-29T12:26:23;13.70;99.90
16200;DHT22;8207;52.494;4.654;2023-03-29T12:29:03;13.70;99.90
16200;DHT22;8207;52.494;4.654;2023-03-29T12:31:38;13.80;99.90
16200;DHT22;8207;52.494;4.654;2023-03-29T12:34:18;14.00;99.90
16200;DHT22;8207;52.494;4.654;2023-03-29T12:37:10;14.20;99.90
16200;DHT22;8207;52.494;4.654;2023-03-29T12:39:38;14.30;99.90
16200;DHT22;8207;52.494;4.654;2023-03-29T12:42:13;14.50;99.90
16200;DHT22;8207;52.494;4.654;2023-03-29T12:44:44;14.60;99.90
16200;DHT22;8207;52.494;4.654;2023-03-29T12:47:16;14.60;99.90
16200;DHT22;8207;52.494;4.654;2023-03-29T12:49:45;14.70;99.90
16200;DHT22;8207;52.494;4.654;2023-03-29T12:52:22;14.70;99.90
16200;DHT22;8207;52.494;4.654;2023-03-29T12:54:56;14.70;99.90
16200;DHT22;8207;52.494;4.654;2023-03-29T12:57:38;14.60;99.90
16200;DHT22;8207;52.494;4.654;2023-03-29T13:00:17;14.50;99.90
16200;DHT22;8207;52.494;4.654;2023-03-29T13:03:02;14.40;99.90
16200;DHT22;8207;52.494;4.654;2023-03-29T13:05:32;14.40;99.90
16200;DHT22;8207;52.494;4.654;2023-03-29T13:08:17;14.50;99.90
16200;DHT22;8207;52.494;4.654;2023-03-29T13:10:51;14.60;99.90
16200;DHT22;8207;52.494;4.654;2023-03-29T13:13:24;14.80;99.90
16200;DHT22;8207;52.494;4.654;2023-03-29T13:15:53;14.90;99.90
16200;DHT22;8207;52.494;4.654;2023-03-29T13:18:37;14.90;99.90
16200;DHT22;8207;52.494;4.654;2023-03-29T13:21:15;14.80;99.90
16200;DHT22;8207;52.494;4.654;2023-03-29T13:23:54;14.70;99.90
16200;DHT22;8207;52.494;4.654;2023-03-29T13:26:46;14.60;99.90
16200;DHT22;8207;52.494;4.654;2023-03-29T13:29:37;14.60;99.90
16200;DHT22;8207;52.494;4.654;2023-03-29T13:32:25;14.50;99.90
16200;DHT22;8207;52.494;4.654;2023-03-29T13:35:03;14.50;99.90
16200;DHT22;8207;52.494;4.654;2023-03-29T13:37:38;14.40;99.90
16200;DHT22;8207;52.494;4.654;2023-03-29T13:40:32;14.40;99.90
16200;DHT22;8207;52.494;4.654;2023-03-29T13:43:07;14.50;99.90
16200;DHT22;8207;52.494;4.654;2023-03-29T13:45:36;14.50;99.90
16200;DHT22;8207;52.494;4.654;2023-03-29T13:48:17;14.50;99.90
16200;DHT22;8207;52.494;4.654;2023-03-29T13:50:52;14.50;99.90
16200;DHT22;8207;52.494;4.654;2023-03-29T13:53:25;14.60;99.90
16200;DHT22;8207;52.494;4.654;2023-03-29T13:55:54;14.60;99.90
16200;DHT22;8207;52.494;4.654;2023-03-29T13:58:31;14.60;99.90
16200;DHT22;8207;52.494;4.654;2023-03-29T14:01:08;14.70;99.90
16200;DHT22;8207;52.494;4.654;2023-03-29T14:03:42;14.70;99.90
16200;DHT22;8207;52.494;4.654;2023-03-29T14:06:12;14.70;99.90
16200;DHT22;8207;52.494;4.654;2023-03-29T14:08:41;14.70;99.90
16200;DHT22;8207;52.494;4.654;2023-03-29T14:11:18;14.80;99.90
16200;DHT22;8207;52.494;4.654;2023-03-29T14:13:49;14.80;99.90
16200;DHT22;8207;52.494;4.654;2023-03-29T14:16:18;14.80;99.90
16200;DHT22;8207;52.494;4.654;2023-03-29T14:18:46;14.80;99.90
16200;DHT22;8207;52.494;4.654;2023-03-29T14:21:16;14.80;99.90
16200;DHT22;8207;52.494;4.654;2023-03-29T14:23:46;14.70;99.90
16200;DHT22;8207;52.494;4.654;2023-03-29T14:26:17;14.70;99.90
16200;DHT22;8207;52.494;4.654;2023-03-29T14:28:45;14.70;99.90
16200;DHT22;8207;52.494;4.654;2023-03-29T14:34:36;14.60;99.90
16200;DHT22;8207;52.494;4.654;2023-03-29T15:12:59;14.20;99.90
16200;DHT22;8207;52.494;4.654;2023-03-29T15:15:27;14.10;99.90
16200;DHT22;8207;52.494;4.654;2023-03-29T15:17:54;14.10;99.90
16200;DHT22;8207;52.494;4.654;2023-03-29T15:20:24;14.10;99.90
16200;DHT22;8207;52.494;4.654;2023-03-29T15:22:56;14.00;99.90
16200;DHT22;8207;52.494;4.654;2023-03-29T15:25:26;14.10;99.90
16200;DHT22;8207;52.494;4.654;2023-03-29T15:27:56;14.00;99.90
16200;DHT22;8207;52.494;4.654;2023-03-29T15:30:31;14.00;99.90
16200;DHT22;8207;52.494;4.654;2023-03-29T15:33:18;14.00;99.90
16200;DHT22;8207;52.494;4.654;2023-03-29T15:35:48;14.10;99.90
16200;DHT22;8207;52.494;4.654;2023-03-29T15:38:16;14.00;99.90
16200;DHT22;8207;52.494;4.654;2023-03-29T15:40:43;14.00;99.90
16200;DHT22;8207;52.494;4.654;2023-03-29T15:43:12;13.90;99.90
16200;DHT22;8207;52.494;4.654;2023-03-29T15:45:38;13.90;99.90
16200;DHT22;8207;52.494;4.654;2023-03-29T15:48:13;13.90;99.90
16200;DHT22;8207;52.494;4.654;2023-03-29T15:50:42;13.80;99.90
16200;DHT22;8207;52.494;4.654;2023-03-29T15:53:09;13.80;99.90
16200;DHT22;8207;52.494;4.654;2023-03-29T15:55:38;13.80;99.90
16200;DHT22;8207;52.494;4.654;2023-03-29T15:58:08;13.70;99.90
16200;DHT22;8207;52.494;4.654;2023-03-29T16:00:41;13.60;99.90
16200;DHT22;8207;52.494;4.654;2023-03-29T16:03:11;13.60;99.90
16200;DHT22;8207;52.494;4.654;2023-03-29T16:05:39;13.60;99.90
16200;DHT22;8207;52.494;4.654;2023-03-29T16:08:08;13.60;99.90
16200;DHT22;8207;52.494;4.654;2023-03-29T16:10:35;13.50;99.90
16200;DHT22;8207;52.494;4.654;2023-03-29T16:13:02;13.50;99.90
16200;DHT22;8207;52.494;4.654;2023-03-29T16:15:30;13.40;99.90
16200;DHT22;8207;52.494;4.654;2023-03-29T16:17:59;13.50;99.90
16200;DHT22;8207;52.494;4.654;2023-03-29T16:20:26;13.50;99.90
16200;DHT22;8207;52.494;4.654;2023-03-29T16:22:53;13.50;99.90
16200;DHT22;8207;52.494;4.654;2023-03-29T16:25:20;13.50;99.90
16200;DHT22;8207;52.494;4.654;2023-03-29T16:27:48;13.50;99.90
16200;DHT22;8207;52.494;4.654;2023-03-29T16:30:15;13.50;99.90
16200;DHT22;8207;52.494;4.654;2023-03-29T16:32:42;13.50;99.90
16200;DHT22;8207;52.494;4.654;2023-03-29T16:35:16;13.50;99.90
16200;DHT22;8207;52.494;4.654;2023-03-29T16:37:45;13.50;99.90
16200;DHT22;8207;52.494;4.654;2023-03-29T16:40:12;13.50;99.90
16200;DHT22;8207;52.494;4.654;2023-03-29T16:42:39;13.50;99.90
16200;DHT22;8207;52.494;4.654;2023-03-29T16:45:11;13.50;99.90
16200;DHT22;8207;52.494;4.654;2023-03-29T16:47:38;13.50;99.90
16200;DHT22;8207;52.494;4.654;2023-03-29T16:50:10;13.50;99.90
16200;DHT22;8207;52.494;4.654;2023-03-29T16:52:39;13.50;99.90
16200;DHT22;8207;52.494;4.654;2023-03-29T16:55:07;13.50;99.90
16200;DHT22;8207;52.494;4.654;2023-03-29T16:57:36;13.60;99.90
16200;DHT22;8207;52.494;4.654;2023-03-29T17:00:05;13.50;99.90
16200;DHT22;8207;52.494;4.654;2023-03-29T17:02:32;13.50;99.90
16200;DHT22;8207;52.494;4.654;2023-03-29T17:05:00;13.50;99.90